Time;durP1;ratioP1;P1;durP2;ratioP2;P2;SDS_P1;SDS_P2;PMS_P1;PMS_P2;Temp;Humidity;BMP_temperature;BMP_pressure;BME280_temperature;BME280_humidity;BME280_pressure;Samples;Min_cycle;Max_cycle;Signal;HPM_P1;HPM_P2
2023/06/21 00:01:30;;;;;;;;;7.75;7.25;;;;;23.79;64.97;100926.41;4942026;28;45493;-73
2023/06/21 00:03:57;;;;;;;;;9.50;7.50;;;;;23.82;64.92;100945.25;4940598;28;45478;-72
2023/06/21 00:06:23;;;;;;;;;7.50;6.75;;;;;23.78;65.38;100935.56;4955665;28;45305;-73
2023/06/21 00:08:48;;;;;;;;;6.00;6.00;;;;;23.82;65.34;100933.47;4940665;28;45552;-73
2023/06/21 00:11:14;;;;;;;;;5.00;5.00;;;;;23.74;65.11;100919.59;4940391;28;45866;-73
2023/06/21 00:13:39;;;;;;;;;5.00;5.00;;;;;23.75;65.28;100927.63;4935426;28;45521;-73
2023/06/21 00:16:04;;;;;;;;;6.50;6.50;;;;;23.73;65.68;100928.78;4935410;28;45566;-73
2023/06/21 00:18:30;;;;;;;;;8.00;8.00;;;;;23.64;65.32;100922.25;4954647;28;45565;-73
2023/06/21 00:20:59;;;;;;;;;9.25;6.75;;;;;23.68;65.74;100931.88;4940384;28;47948;-73
2023/06/21 00:23:25;;;;;;;;;6.75;5.75;;;;;23.64;65.33;100931.28;4941357;28;45339;-73
2023/06/21 00:25:50;;;;;;;;;8.00;6.00;;;;;23.62;65.37;100933.28;4941383;28;45469;-73
2023/06/21 00:28:16;;;;;;;;;7.00;6.00;;;;;23.58;65.73;100931.78;4931339;28;45387;-73
2023/06/21 00:30:41;;;;;;;;;5.75;5.00;;;;;23.52;65.27;100921.41;4955809;28;47365;-73
2023/06/21 00:33:06;;;;;;;;;7.00;5.75;;;;;23.45;65.55;100918.34;4936405;28;45411;-73
2023/06/21 00:35:31;;;;;;;;;6.00;6.00;;;;;23.49;65.66;100933.44;4936363;28;49289;-73
2023/06/21 00:37:57;;;;;;;;;6.00;6.00;;;;;23.44;65.55;100932.13;4940866;28;45586;-73
2023/06/21 00:40:25;;;;;;;;;6.50;6.50;;;;;23.47;65.63;100940.88;4938928;28;45487;-73
2023/06/21 00:42:51;;;;;;;;;6.00;5.00;;;;;23.43;65.72;100931.22;4936424;28;45458;-73
2023/06/21 00:45:17;;;;;;;;;6.00;5.25;;;;;23.42;65.48;100934.97;4934326;28;45385;-73
2023/06/21 00:47:45;;;;;;;;;6.50;6.50;;;;;23.41;65.72;100932.38;4951532;28;45502;-73
2023/06/21 00:50:12;;;;;;;;;7.00;7.00;;;;;23.39;65.94;100937.94;4939296;28;47232;-73
2023/06/21 00:52:39;;;;;;;;;7.00;5.00;;;;;23.38;65.79;100936.19;4940758;28;45791;-73
2023/06/21 00:55:05;;;;;;;;;5.00;5.00;;;;;23.28;66.10;100921.63;4941763;28;45401;-73
2023/06/21 00:57:31;;;;;;;;;4.75;4.75;;;;;23.31;66.31;100926.81;4940015;28;45482;-73
2023/06/21 00:59:57;;;;;;;;;6.50;4.75;;;;;23.30;65.92;100934.13;4940224;28;45953;-73
2023/06/21 01:02:22;;;;;;;;;6.25;6.25;;;;;23.35;66.44;100947.34;4940363;28;45663;-73
2023/06/21 01:04:49;;;;;;;;;5.25;5.00;;;;;23.30;66.29;100945.03;4941041;28;45425;-73
2023/06/21 01:07:29;;;;;;;;;5.00;4.50;;;;;23.23;66.36;100951.94;4940624;28;45504;-73
2023/06/21 01:10:26;;;;;;;;;4.50;4.50;;;;;23.19;66.64;100964.09;4932591;28;46150;-73
2023/06/21 01:13:27;;;;;;;;;4.00;4.00;;;;;23.23;66.45;100976.47;4940466;28;45565;-73
2023/06/21 01:16:09;;;;;;;;;5.00;5.00;;;;;23.18;66.28;100962.34;4940045;28;45470;-73
2023/06/21 01:18:35;;;;;;;;;5.00;5.00;;;;;23.22;66.42;100976.59;4934272;28;45554;-73
2023/06/21 01:21:03;;;;;;;;;6.25;6.25;;;;;23.18;66.40;100981.41;4935611;28;45476;-73
2023/06/21 01:23:46;;;;;;;;;4.00;4.00;;;;;23.22;66.53;100987.47;4940521;28;45605;-73
2023/06/21 01:26:29;;;;;;;;;4.75;4.75;;;;;23.14;66.45;100971.78;4950184;28;45396;-73
2023/06/21 01:29:11;;;;;;;;;4.50;4.50;;;;;23.20;66.58;100992.19;4940253;28;45312;-73
2023/06/21 01:31:39;;;;;;;;;6.00;4.00;;;;;23.16;66.64;100988.00;4930141;28;46391;-73
2023/06/21 01:34:05;;;;;;;;;5.00;5.00;;;;;23.11;66.66;100982.94;4939853;28;45615;-73
2023/06/21 01:36:32;;;;;;;;;8.25;8.25;;;;;23.09;66.56;100983.03;4940666;28;45554;-73
2023/06/21 01:38:57;;;;;;;;;9.75;8.50;;;;;23.16;66.30;100993.44;4939163;28;45505;-73
2023/06/21 01:41:24;;;;;;;;;13.00;10.75;;;;;23.17;66.61;100997.88;4940438;28;45341;-73
2023/06/21 01:43:50;;;;;;;;;11.25;9.25;;;;;23.13;66.71;100995.41;4931900;28;45487;-73
2023/06/21 01:46:18;;;;;;;;;16.75;13.50;;;;;23.07;66.36;100989.59;4934753;28;45400;-73
2023/06/21 01:48:44;;;;;;;;;19.50;18.00;;;;;23.12;66.79;101001.84;4938999;28;45672;-73
2023/06/21 01:51:12;;;;;;;;;24.75;21.25;;;;;23.13;66.68;101006.28;4938313;28;45251;-73
2023/06/21 01:53:39;;;;;;;;;20.25;19.75;;;;;23.07;67.07;100992.31;4935707;28;45415;-73
2023/06/21 01:56:11;;;;;;;;;14.75;13.50;;;;;23.12;66.59;101007.31;4941008;28;45380;-73
2023/06/21 01:58:36;;;;;;;;;16.50;16.50;;;;;23.10;66.86;101011.13;4938489;28;45470;-73
2023/06/21 02:01:03;;;;;;;;;17.75;14.75;;;;;23.13;66.75;101025.34;4934697;28;47067;-73
2023/06/21 02:03:31;;;;;;;;;14.25;14.00;;;;;23.13;66.96;101010.88;4936054;28;45434;-73
2023/06/21 02:05:59;;;;;;;;;12.25;11.75;;;;;22.98;66.58;100995.78;4940611;28;45348;-73
2023/06/21 02:08:25;;;;;;;;;12.75;12.00;;;;;23.06;66.80;101015.97;4938366;28;45525;-73
2023/06/21 02:10:51;;;;;;;;;6.75;3.25;;;;;23.03;66.74;101020.75;4937650;28;46533;-73
2023/06/21 02:13:16;;;;;;;;;7.00;6.75;;;;;23.12;66.77;101033.66;4935510;28;45635;-73
2023/06/21 02:15:42;;;;;;;;;7.00;4.00;;;;;23.07;66.83;101024.97;4934615;28;45393;-73
2023/06/21 02:18:09;;;;;;;;;4.75;4.75;;;;;23.07;66.81;101016.81;4942812;28;45444;-73
2023/06/21 02:20:35;;;;;;;;;6.50;5.00;;;;;22.98;66.77;101004.78;4937619;28;46244;-73
2023/06/21 02:23:01;;;;;;;;;4.00;4.00;;;;;22.99;67.03;101008.38;4942802;28;45275;-73
2023/06/21 02:25:27;;;;;;;;;5.00;5.00;;;;;23.02;66.99;101005.41;4943405;28;45337;-73
2023/06/21 02:27:53;;;;;;;;;4.25;3.50;;;;;23.06;66.81;101015.97;4942430;28;45514;-73
2023/06/21 02:30:18;;;;;;;;;3.00;3.00;;;;;22.96;66.55;100998.59;4943900;28;45472;-73
2023/06/21 02:32:43;;;;;;;;;4.00;4.00;;;;;23.01;66.56;101006.41;4943074;28;45275;-73
2023/06/21 02:35:09;;;;;;;;;4.75;3.75;;;;;23.03;66.79;101015.31;4953752;28;50835;-73
2023/06/21 02:37:35;;;;;;;;;5.00;4.00;;;;;23.01;67.14;101009.13;4940570;28;45941;-73
2023/06/21 02:40:09;;;;;;;;;4.75;4.50;;;;;23.01;66.98;101007.28;4932278;28;48319;-73
2023/06/21 02:42:34;;;;;;;;;1.00;1.00;;;;;22.96;67.00;101001.34;4927732;28;45255;-73
2023/06/21 02:45:00;;;;;;;;;5.25;3.25;;;;;22.94;67.02;100995.16;4954513;28;45434;-73
2023/06/21 02:47:25;;;;;;;;;3.25;3.25;;;;;23.00;66.90;101010.97;4943532;28;45541;-73
2023/06/21 02:49:51;;;;;;;;;3.00;3.00;;;;;22.98;66.89;101012.97;4940461;28;47432;-73
2023/06/21 02:52:16;;;;;;;;;4.75;4.00;;;;;22.96;67.02;101016.81;4937942;28;58866;-73
2023/06/21 02:54:41;;;;;;;;;3.25;3.25;;;;;22.97;67.40;101018.53;4937364;28;45355;-73
2023/06/21 02:57:07;;;;;;;;;3.00;3.00;;;;;22.93;67.73;101024.22;4935776;28;45414;-73
2023/06/21 02:59:32;;;;;;;;;4.00;3.00;;;;;22.90;67.33;101021.75;4936438;28;45409;-73
2023/06/21 03:01:59;;;;;;;;;3.00;3.00;;;;;22.84;67.46;101010.50;4933969;28;45368;-73
2023/06/21 03:04:25;;;;;;;;;3.00;3.00;;;;;22.88;67.37;101012.81;4928719;28;45576;-73
2023/06/21 03:06:50;;;;;;;;;2.75;2.75;;;;;22.90;67.26;101020.88;4941187;28;45609;-73
2023/06/21 03:09:15;;;;;;;;;3.50;3.50;;;;;22.83;67.42;101025.94;4941256;28;46274;-73
2023/06/21 03:11:40;;;;;;;;;3.75;3.75;;;;;22.82;67.44;101018.78;4936783;28;45234;-73
2023/06/21 03:14:06;;;;;;;;;4.25;3.00;;;;;22.76;67.33;101013.81;4930819;28;47377;-73
2023/06/21 03:16:31;;;;;;;;;4.50;3.75;;;;;22.84;67.77;101032.28;4940682;28;53688;-73
2023/06/21 03:18:56;;;;;;;;;3.75;3.50;;;;;22.78;67.68;101024.59;4941019;28;47632;-73
2023/06/21 03:21:25;;;;;;;;;4.00;2.50;;;;;22.73;67.54;101020.34;4942862;28;45252;-73
2023/06/21 03:23:50;;;;;;;;;4.25;4.25;;;;;22.79;68.06;101037.19;4942412;28;45759;-73
2023/06/21 03:26:16;;;;;;;;;3.25;3.25;;;;;22.72;68.13;101028.63;4942831;28;45525;-73
2023/06/21 03:28:42;;;;;;;;;2.75;2.75;;;;;22.73;68.02;101022.22;4940919;28;48268;-73
2023/06/21 03:31:07;;;;;;;;;5.00;4.00;;;;;22.75;67.98;101034.72;4941975;28;45560;-73
2023/06/21 03:33:33;;;;;;;;;3.25;3.00;;;;;22.74;68.01;101034.84;4929920;28;45403;-73
2023/06/21 03:35:58;;;;;;;;;4.00;3.75;;;;;22.67;67.99;101026.31;4935897;28;50285;-73
2023/06/21 03:38:23;;;;;;;;;3.75;3.75;;;;;22.64;67.87;101025.69;4933663;28;45451;-73
2023/06/21 03:40:49;;;;;;;;;3.00;3.00;;;;;22.60;67.91;101026.91;4936993;28;45454;-73
2023/06/21 03:43:15;;;;;;;;;4.00;3.25;;;;;22.65;68.17;101033.69;4931281;28;45513;-73
2023/06/21 03:45:40;;;;;;;;;4.00;4.00;;;;;22.64;68.40;101051.03;4939390;28;45417;-73
2023/06/21 03:48:06;;;;;;;;;4.25;4.00;;;;;22.58;68.77;101040.63;4934685;28;46240;-73
2023/06/21 03:50:32;;;;;;;;;4.00;4.00;;;;;22.64;68.36;101058.34;4942067;28;45349;-73
2023/06/21 03:52:58;;;;;;;;;3.75;3.75;;;;;22.56;68.47;101058.91;4932968;28;45379;-73
2023/06/21 03:55:23;;;;;;;;;4.25;3.25;;;;;22.61;69.07;101083.91;4942176;28;45497;-73
2023/06/21 03:57:49;;;;;;;;;5.00;4.00;;;;;22.58;69.09;101074.13;4940565;28;47112;-73
2023/06/21 04:00:15;;;;;;;;;3.00;3.00;;;;;22.52;68.59;101068.28;4941261;28;45423;-73
2023/06/21 04:02:41;;;;;;;;;6.75;5.25;;;;;22.54;68.66;101069.91;4936662;28;45470;-73
2023/06/21 04:05:07;;;;;;;;;1.50;1.50;;;;;22.58;68.71;101078.72;4941438;28;45481;-73
2023/06/21 04:07:33;;;;;;;;;3.75;3.25;;;;;22.57;69.24;101088.72;4935150;28;47113;-73
2023/06/21 04:09:58;;;;;;;;;5.25;4.50;;;;;22.57;69.08;101088.72;4939597;28;50542;-73
2023/06/21 04:12:24;;;;;;;;;4.00;3.25;;;;;22.60;69.01;101097.63;4939513;28;45476;-73
2023/06/21 04:14:49;;;;;;;;;4.00;3.25;;;;;22.53;69.18;101086.34;4941296;28;45390;-73
2023/06/21 04:17:15;;;;;;;;;3.00;3.00;;;;;22.60;68.81;101103.06;4940210;28;54424;-73
2023/06/21 04:19:40;;;;;;;;;3.75;3.75;;;;;22.56;69.08;101102.44;4929728;28;46024;-73
2023/06/21 04:22:05;;;;;;;;;4.00;4.00;;;;;22.57;69.19;101113.22;4932368;28;45387;-73
2023/06/21 04:24:31;;;;;;;;;6.25;5.25;;;;;22.54;69.41;101104.44;4936845;28;54775;-73
2023/06/21 04:26:58;;;;;;;;;3.50;3.50;;;;;22.56;69.25;101119.63;4933374;28;46609;-73
2023/06/21 04:29:25;;;;;;;;;4.00;4.00;;;;;22.57;69.69;101126.81;4939107;28;45463;-73
2023/06/21 04:31:52;;;;;;;;;6.75;4.25;;;;;22.47;69.32;101112.19;4931499;28;45454;-73
2023/06/21 04:34:18;;;;;;;;;4.25;4.25;;;;;22.54;69.64;101124.31;4930838;28;45450;-73
2023/06/21 04:36:47;;;;;;;;;4.00;4.00;;;;;22.53;69.78;101136.19;4941767;28;46061;-73
2023/06/21 04:39:16;;;;;;;;;4.25;4.25;;;;;22.52;69.89;101142.63;4937263;28;45435;-73
2023/06/21 04:41:41;;;;;;;;;3.00;3.00;;;;;22.53;69.78;101149.78;4930142;28;45398;-73
2023/06/21 04:44:07;;;;;;;;;4.75;4.75;;;;;22.51;69.46;101145.47;4935470;28;45379;-73
2023/06/21 04:46:35;;;;;;;;;5.25;5.00;;;;;22.53;70.14;101154.38;4940085;28;48133;-73
2023/06/21 04:49:04;;;;;;;;;3.00;3.00;;;;;22.53;69.54;101162.53;4940846;28;45493;-73
2023/06/21 04:51:29;;;;;;;;;4.00;4.00;;;;;22.52;70.07;101166.22;4938722;28;45612;-72
2023/06/21 04:53:54;;;;;;;;;5.00;4.00;;;;;22.54;69.95;101167.00;4938451;28;45312;-73
2023/06/21 04:56:20;;;;;;;;;6.75;5.25;;;;;22.44;70.53;101142.34;4939426;28;52442;-73
2023/06/21 04:58:45;;;;;;;;;5.00;5.00;;;;;22.45;70.32;101152.22;4925229;28;53216;-73
2023/06/21 05:01:13;;;;;;;;;5.00;5.00;;;;;22.51;70.18;101172.66;4929521;28;46256;-73
2023/06/21 05:03:38;;;;;;;;;5.25;5.25;;;;;22.53;69.91;101167.97;4926209;28;45475;-73
2023/06/21 05:06:05;;;;;;;;;4.00;4.00;;;;;22.51;70.14;101175.38;4934828;28;45391;-73
2023/06/21 05:08:30;;;;;;;;;4.25;4.25;;;;;22.54;70.02;101186.91;4928084;28;45510;-73
2023/06/21 05:10:56;;;;;;;;;4.00;4.00;;;;;22.54;70.62;101196.91;4930683;28;45564;-73
2023/06/21 05:13:21;;;;;;;;;7.00;6.50;;;;;22.47;70.24;101184.75;4939378;28;45609;-73
2023/06/21 05:15:46;;;;;;;;;5.50;5.50;;;;;22.54;70.63;101195.06;4939926;28;45391;-73
2023/06/21 05:18:12;;;;;;;;;6.00;6.00;;;;;22.54;70.30;101200.50;4938906;28;45630;-73
2023/06/21 05:20:37;;;;;;;;;5.00;5.00;;;;;22.50;70.72;101196.28;4955883;28;45338;-73
2023/06/21 05:23:02;;;;;;;;;6.25;6.00;;;;;22.54;70.31;101200.50;4938036;28;45497;-73
2023/06/21 05:25:28;;;;;;;;;4.50;4.50;;;;;22.58;70.49;101202.00;4932946;28;45411;-73
2023/06/21 05:27:53;;;;;;;;;6.00;5.00;;;;;22.54;70.22;101200.50;4940100;28;45302;-73
2023/06/21 05:30:19;;;;;;;;;5.25;5.25;;;;;22.58;70.35;101195.69;4941289;28;45469;-73
2023/06/21 05:32:45;;;;;;;;;6.25;5.00;;;;;22.61;70.13;101202.75;4938721;28;45535;-73
2023/06/21 05:35:10;;;;;;;;;4.50;4.50;;;;;22.58;70.06;101196.53;4939273;28;46524;-73
2023/06/21 05:37:36;;;;;;;;;7.25;6.25;;;;;22.60;70.71;101191.00;4938963;28;45292;-73
2023/06/21 05:40:02;;;;;;;;;5.25;4.50;;;;;22.57;70.46;101191.25;4940376;28;45391;-73
2023/06/21 05:42:29;;;;;;;;;5.25;5.25;;;;;22.65;70.21;101204.25;4932304;28;45458;-73
2023/06/21 05:44:54;;;;;;;;;6.00;6.00;;;;;22.64;70.51;101195.22;4938534;28;47439;-73
2023/06/21 05:47:19;;;;;;;;;8.00;6.75;;;;;22.65;70.75;101202.38;4934656;28;45406;-73
2023/06/21 05:49:45;;;;;;;;;5.25;5.25;;;;;22.66;71.12;101197.84;4927904;28;45411;-73
2023/06/21 05:52:10;;;;;;;;;6.50;5.25;;;;;22.66;71.14;101200.56;4933384;28;45482;-73
2023/06/21 05:54:37;;;;;;;;;6.75;6.75;;;;;22.62;70.98;101194.50;4935661;28;46186;-73
2023/06/21 05:57:05;;;;;;;;;5.25;5.25;;;;;22.64;71.30;101188.94;4940401;28;45555;-73
2023/06/21 05:59:31;;;;;;;;;4.75;4.75;;;;;22.64;71.03;101183.50;4933818;28;46872;-73
2023/06/21 06:01:56;;;;;;;;;6.75;6.50;;;;;22.67;71.11;101192.28;4933546;28;45414;-73
2023/06/21 06:04:22;;;;;;;;;5.00;5.00;;;;;22.58;70.80;101180.22;4940544;28;45378;-73
2023/06/21 06:06:47;;;;;;;;;5.00;5.00;;;;;22.63;71.23;101195.34;4935614;28;45385;-73
2023/06/21 06:09:12;;;;;;;;;6.00;5.75;;;;;22.68;71.27;101195.84;4933392;28;45388;-73
2023/06/21 06:11:38;;;;;;;;;7.25;6.00;;;;;22.70;71.02;101208.38;4929974;28;45736;-73
2023/06/21 06:14:03;;;;;;;;;7.25;7.00;;;;;22.66;71.62;101192.41;4947955;28;48098;-72
2023/06/21 06:16:29;;;;;;;;;7.00;6.75;;;;;22.65;71.14;101201.53;4938581;28;45704;-72
2023/06/21 06:18:54;;;;;;;;;7.75;6.50;;;;;22.67;70.73;101202.28;4940415;28;45394;-73
2023/06/21 06:21:21;;;;;;;;;6.00;6.00;;;;;22.65;71.12;101191.50;4925429;28;45727;-72
2023/06/21 06:23:52;;;;;;;;;5.50;5.50;;;;;22.65;70.80;101187.94;4935458;28;45576;-73
2023/06/21 06:26:23;;;;;;;;;5.50;5.25;;;;;22.70;70.84;101193.88;4938897;28;45539;-73
2023/06/21 06:28:49;;;;;;;;;7.00;5.75;;;;;22.72;71.35;101195.53;4939534;28;45420;-73
2023/06/21 06:31:17;;;;;;;;;5.00;5.00;;;;;22.69;71.46;101194.88;4938985;28;45415;-73
2023/06/21 06:33:43;;;;;;;;;8.25;8.00;;;;;22.70;71.39;101197.50;4940124;28;46481;-72
2023/06/21 06:36:08;;;;;;;;;7.25;7.25;;;;;22.64;71.43;101200.69;4935760;28;45564;-71
2023/06/21 06:38:33;;;;;;;;;8.25;8.25;;;;;22.71;71.11;101210.09;4931214;28;45481;-73
2023/06/21 06:40:59;;;;;;;;;7.25;7.25;;;;;22.68;71.21;101202.16;4935354;28;46724;-72
2023/06/21 06:43:24;;;;;;;;;8.75;8.00;;;;;22.72;71.05;101211.84;4940060;28;46098;-72
2023/06/21 06:45:50;;;;;;;;;9.00;9.00;;;;;22.75;71.41;101225.22;4932252;28;47105;-75
2023/06/21 06:48:15;;;;;;;;;6.50;5.00;;;;;22.72;71.04;101219.13;4937165;28;45437;-75
2023/06/21 06:50:42;;;;;;;;;4.50;4.00;;;;;22.74;70.63;101214.44;4927176;28;46116;-76
2023/06/21 06:53:08;;;;;;;;;9.00;7.75;;;;;22.69;70.84;101205.78;4933252;28;46318;-77
2023/06/21 06:55:34;;;;;;;;;7.00;7.00;;;;;22.74;70.30;101228.91;4922267;28;45525;-75
2023/06/21 06:58:00;;;;;;;;;6.75;6.25;;;;;22.74;70.08;101230.78;4938086;28;45252;-77
2023/06/21 07:00:25;;;;;;;;;9.75;9.00;;;;;22.70;70.60;101226.53;4938912;28;45510;-76
2023/06/21 07:02:56;;;;;;;;;7.00;7.00;;;;;22.75;70.46;101227.94;4942077;28;45434;-76
2023/06/21 07:05:24;;;;;;;;;6.75;5.00;;;;;22.68;70.20;101218.47;4942832;28;45564;-76
2023/06/21 07:07:50;;;;;;;;;7.00;7.00;;;;;22.77;69.94;101230.56;4942835;28;46051;-76
2023/06/21 07:10:16;;;;;;;;;9.50;8.25;;;;;22.78;69.65;101231.41;4940921;28;45544;-75
2023/06/21 07:12:42;;;;;;;;;7.00;7.00;;;;;22.86;69.84;101243.44;4942873;28;46454;-76
2023/06/21 07:15:07;;;;;;;;;5.00;4.00;;;;;22.89;69.46;101242.34;4941289;28;45521;-75
2023/06/21 07:17:33;;;;;;;;;7.00;7.00;;;;;22.87;69.50;101234.31;4941788;28;45468;-76
2023/06/21 07:19:58;;;;;;;;;8.25;7.25;;;;;22.80;69.86;101224.84;4940831;28;45590;-75
2023/06/21 07:22:23;;;;;;;;;6.25;6.25;;;;;22.68;69.87;101188.56;4942008;28;45450;-76
2023/06/21 07:24:49;;;;;;;;;6.75;6.00;;;;;22.87;69.60;101220.69;4938239;28;46047;-77
2023/06/21 07:27:14;;;;;;;;;7.50;7.25;;;;;23.01;69.26;101243.25;4943046;28;45471;-76
2023/06/21 07:29:39;;;;;;;;;10.50;9.50;;;;;22.97;69.66;101225.41;4937245;28;45832;-76
2023/06/21 07:32:05;;;;;;;;;11.50;8.25;;;;;22.98;69.37;101221.72;4940816;28;46270;-76
2023/06/21 07:34:30;;;;;;;;;9.75;8.00;;;;;23.09;68.73;101240.84;4938046;28;45442;-76
2023/06/21 07:36:56;;;;;;;;;6.50;6.00;;;;;22.98;68.44;101233.47;4938042;28;45480;-76
2023/06/21 07:39:21;;;;;;;;;8.50;7.25;;;;;23.16;68.65;101263.88;4942129;28;45319;-77
2023/06/21 07:41:46;;;;;;;;;7.25;7.25;;;;;23.12;68.56;101241.47;4942073;28;51619;-76
2023/06/21 07:44:12;;;;;;;;;7.25;6.50;;;;;23.13;67.98;101224.13;4937968;28;45632;-76
2023/06/21 07:46:37;;;;;;;;;7.50;6.50;;;;;23.30;68.17;101238.28;4936851;28;45382;-72
2023/06/21 07:49:03;;;;;;;;;8.75;7.50;;;;;23.27;68.22;101225.78;4941996;28;45484;-68
2023/06/21 07:51:28;;;;;;;;;6.75;6.00;;;;;23.39;67.85;101236.69;4937091;28;48141;-67
2023/06/21 07:53:53;;;;;;;;;7.50;5.50;;;;;23.45;67.62;101245.25;4939200;28;45446;-67
2023/06/21 07:56:19;;;;;;;;;7.00;6.00;;;;;23.46;67.89;101235.25;4941794;28;49080;-69
2023/06/21 07:58:46;;;;;;;;;6.50;6.00;;;;;23.53;67.99;101238.34;4942599;28;45621;-78
2023/06/21 08:01:12;;;;;;;;;7.00;6.00;;;;;23.49;66.79;101226.81;4943632;28;46228;-74
2023/06/21 08:03:37;;;;;;;;;7.75;6.50;;;;;23.48;66.76;101209.59;4940509;28;45685;-75
2023/06/21 08:06:03;;;;;;;;;6.00;6.00;;;;;23.57;66.55;101218.03;4941782;28;45518;-74
2023/06/21 08:08:28;;;;;;;;;7.00;6.25;;;;;23.72;66.76;101235.00;4940783;28;45773;-75
2023/06/21 08:10:56;;;;;;;;;11.25;8.00;;;;;23.80;66.64;101246.16;4940804;28;51880;-75
2023/06/21 08:13:22;;;;;;;;;8.50;7.25;;;;;23.81;65.74;101246.03;4937594;28;45537;-75
2023/06/21 08:15:49;;;;;;;;;4.50;4.50;;;;;23.92;65.96;101256.09;4940150;28;45338;-76
2023/06/21 08:18:14;;;;;;;;;7.00;7.00;;;;;23.84;65.57;101244.97;4936628;28;45813;-75
2023/06/21 08:20:40;;;;;;;;;7.25;6.75;;;;;23.95;65.31;101255.84;4945966;28;45417;-74
2023/06/21 08:23:07;;;;;;;;;6.50;6.50;;;;;24.05;65.04;101264.16;4939051;28;45517;-75
2023/06/21 08:25:32;;;;;;;;;8.00;8.00;;;;;24.07;65.00;101264.91;4941470;28;45400;-74
2023/06/21 08:27:58;;;;;;;;;8.50;7.00;;;;;24.04;64.56;101249.66;4938401;28;45525;-74
2023/06/21 08:30:23;;;;;;;;;6.25;5.00;;;;;24.05;64.02;101245.94;4935876;28;47100;-75
2023/06/21 08:32:48;;;;;;;;;6.50;6.50;;;;;24.10;64.24;101250.16;4951671;28;45497;-75
2023/06/21 08:35:14;;;;;;;;;8.75;7.00;;;;;24.24;64.26;101258.09;4930912;28;45335;-74
2023/06/21 08:37:40;;;;;;;;;8.25;7.50;;;;;24.32;63.69;101269.22;4945019;28;45551;-75
2023/06/21 08:40:07;;;;;;;;;9.25;8.00;;;;;24.33;63.49;101257.31;4941392;28;45556;-75
2023/06/21 08:42:32;;;;;;;;;11.25;10.75;;;;;24.25;64.02;101240.72;4940106;28;45477;-73
2023/06/21 08:44:58;;;;;;;;;13.25;11.00;;;;;24.48;63.87;101267.97;4938811;28;45332;-73
2023/06/21 08:47:28;;;;;;;;;9.00;7.75;;;;;24.52;63.62;101266.69;4941823;28;45320;-74
2023/06/21 08:49:57;;;;;;;;;6.75;6.75;;;;;24.52;62.85;101264.81;4939638;28;46008;-74
2023/06/21 08:52:27;;;;;;;;;5.00;4.00;;;;;24.59;63.02;101273.41;4926863;28;45427;-74
2023/06/21 08:55:08;;;;;;;;;9.25;9.00;;;;;24.59;63.04;101270.69;4951676;28;45391;-74
2023/06/21 08:57:41;;;;;;;;;9.25;9.00;;;;;24.67;63.07;101270.03;4931568;28;45522;-74
2023/06/21 09:00:11;;;;;;;;;13.25;12.75;;;;;24.60;62.71;101265.09;4939204;28;47377;-75
2023/06/21 09:02:52;;;;;;;;;6.75;6.75;;;;;24.59;61.95;101266.09;4941130;28;45942;-74
2023/06/21 09:05:41;;;;;;;;;7.00;7.00;;;;;24.73;62.56;101280.47;4943261;28;45813;-74
2023/06/21 09:08:07;;;;;;;;;6.50;6.50;;;;;24.61;62.61;101265.97;4927510;28;45532;-74
2023/06/21 09:10:34;;;;;;;;;6.75;6.75;;;;;24.64;62.66;101260.28;4920372;28;47479;-74
2023/06/21 09:13:01;;;;;;;;;8.00;7.00;;;;;24.77;62.22;101273.72;4940058;28;45682;-74
2023/06/21 09:15:29;;;;;;;;;5.25;5.25;;;;;24.71;61.79;101266.94;4942247;28;45425;-74
2023/06/21 09:17:56;;;;;;;;;5.75;5.75;;;;;24.76;62.26;101269.28;4935156;28;45698;-74
2023/06/21 09:20:27;;;;;;;;;9.75;7.75;;;;;24.82;61.94;101271.47;4950645;28;47202;-74
2023/06/21 09:22:54;;;;;;;;;6.00;5.50;;;;;24.87;61.40;101280.16;4954112;28;46113;-74
2023/06/21 09:25:20;;;;;;;;;7.00;6.50;;;;;24.84;61.22;101272.25;4937823;28;45482;-73
2023/06/21 09:27:45;;;;;;;;;6.25;5.00;;;;;24.87;61.62;101271.09;4936734;28;45571;-74
2023/06/21 09:30:11;;;;;;;;;9.50;8.50;;;;;24.86;61.28;101269.34;4946626;28;46866;-74
2023/06/21 09:32:36;;;;;;;;;8.50;6.00;;;;;24.94;60.80;101275.91;4939092;28;45493;-74
2023/06/21 09:35:02;;;;;;;;;11.00;10.75;;;;;24.88;61.21;101260.03;4940364;28;45462;-74
2023/06/21 09:37:33;;;;;;;;;8.50;6.50;;;;;24.88;60.35;101253.72;4933674;28;47041;-76
2023/06/21 09:39:58;;;;;;;;;9.00;6.00;;;;;24.88;60.03;101256.47;4925711;28;46166;-75
2023/06/21 09:42:26;;;;;;;;;6.75;6.75;;;;;24.92;60.22;101264.22;4935470;28;45514;-75
2023/06/21 09:44:52;;;;;;;;;5.50;4.50;;;;;25.02;60.30;101283.44;4939852;28;46110;-74
2023/06/21 09:47:17;;;;;;;;;5.00;5.00;;;;;25.06;60.15;101282.19;4937800;28;45833;-74
2023/06/21 09:49:46;;;;;;;;;8.00;7.00;;;;;25.05;60.01;101280.44;4956583;28;47745;-74
2023/06/21 09:52:13;;;;;;;;;6.00;5.50;;;;;25.04;60.32;101280.56;4951756;28;45485;-74
2023/06/21 09:54:42;;;;;;;;;6.25;6.25;;;;;24.98;60.37;101267.47;4937634;28;45454;-74
2023/06/21 09:57:08;;;;;;;;;9.50;7.75;;;;;25.07;60.08;101270.25;4936385;28;45521;-74
2023/06/21 09:59:38;;;;;;;;;9.00;8.00;;;;;25.07;59.88;101267.53;4934476;28;45468;-74
2023/06/21 10:02:05;;;;;;;;;7.00;7.00;;;;;25.08;60.07;101274.72;4938010;28;45626;-73
2023/06/21 10:04:40;;;;;;;;;8.25;7.50;;;;;25.18;59.19;101279.41;4938802;28;45703;-75
2023/06/21 10:07:05;;;;;;;;;8.00;8.00;;;;;25.14;58.89;101273.31;4938293;28;45905;-75
2023/06/21 10:09:38;;;;;;;;;5.25;5.25;;;;;25.20;58.91;101285.59;4937120;28;45746;-74
2023/06/21 10:12:11;;;;;;;;;10.00;10.00;;;;;25.15;58.64;101264.16;4942495;28;45642;-74
2023/06/21 10:14:36;;;;;;;;;7.50;7.50;;;;;25.25;59.01;101275.16;4932679;28;45521;-75
2023/06/21 10:17:02;;;;;;;;;9.75;8.50;;;;;25.23;58.35;101267.09;4939468;28;45506;-77
2023/06/21 10:19:31;;;;;;;;;7.00;7.00;;;;;25.27;58.73;101264.97;4938135;28;46454;-77
2023/06/21 10:22:10;;;;;;;;;7.50;7.00;;;;;25.25;59.00;101254.16;4939126;28;45498;-77
2023/06/21 10:24:47;;;;;;;;;7.25;6.25;;;;;25.37;58.19;101270.53;4935230;28;45438;-76
2023/06/21 10:27:14;;;;;;;;;7.75;7.00;;;;;25.33;58.45;101265.31;4939401;28;45810;-76
2023/06/21 10:29:41;;;;;;;;;7.50;6.00;;;;;25.42;58.99;101273.72;4939488;28;45485;-76
2023/06/21 10:32:08;;;;;;;;;6.25;6.25;;;;;25.35;57.57;101253.41;4938532;28;45480;-75
2023/06/21 10:34:56;;;;;;;;;9.50;7.50;;;;;25.50;57.64;101272.03;4936804;28;45417;-75
2023/06/21 10:37:32;;;;;;;;;7.00;6.00;;;;;25.39;58.67;101246.66;4938431;28;45531;-75
2023/06/21 10:40:03;;;;;;;;;4.75;4.75;;;;;25.62;57.88;101266.50;4940351;28;48361;-74
2023/06/21 10:42:29;;;;;;;;;6.50;6.50;;;;;25.54;57.67;101248.03;4942339;28;45642;-74
2023/06/21 10:44:58;;;;;;;;;5.50;5.25;;;;;25.72;56.92;101267.41;4937585;28;45469;-75
2023/06/21 10:47:25;;;;;;;;;7.00;7.00;;;;;25.72;56.60;101261.09;4939533;28;45468;-74
2023/06/21 10:49:53;;;;;;;;;9.00;7.00;;;;;25.62;57.22;101236.44;4942032;28;46177;-75
2023/06/21 10:52:20;;;;;;;;;6.25;6.00;;;;;25.78;56.32;101258.69;4939393;28;45537;-73
2023/06/21 10:54:47;;;;;;;;;5.75;4.25;;;;;25.82;57.04;101273.81;4938864;28;45493;-74
2023/06/21 10:57:14;;;;;;;;;6.00;5.75;;;;;25.77;56.88;101253.34;4941171;28;45824;-75
2023/06/21 10:59:41;;;;;;;;;13.25;12.00;;;;;25.74;57.14;101238.06;4956411;28;47520;-74
2023/06/21 11:02:07;;;;;;;;;7.75;6.50;;;;;25.80;56.45;101251.22;4941988;28;45564;-74
2023/06/21 11:05:31;;;;;;;;;9.50;9.50;;;;;25.94;56.36;101268.25;4938532;28;45578;-74
2023/06/21 11:08:00;;;;;;;;;7.00;7.00;;;;;25.96;55.86;101266.28;4845529;29;45654;-74
2023/06/21 11:10:49;;;;;;;;;7.25;6.25;;;;;25.96;55.37;101266.28;4843655;29;45548;-74
2023/06/21 11:13:17;;;;;;;;;7.25;6.00;;;;;25.89;55.90;101258.59;4907465;28;45519;-74
2023/06/21 11:15:46;;;;;;;;;9.00;6.50;;;;;25.95;55.93;101262.69;4939401;28;45532;-74
2023/06/21 11:18:19;;;;;;;;;9.50;8.75;;;;;25.82;55.52;101242.88;4941504;28;45406;-74
2023/06/21 11:20:50;;;;;;;;;8.50;6.75;;;;;25.95;55.50;101254.47;4941468;28;45931;-74
2023/06/21 11:23:25;;;;;;;;;11.25;10.50;;;;;25.89;56.05;101235.84;4940375;28;45415;-75
2023/06/21 11:26:12;;;;;;;;;5.75;2.75;;;;;26.02;54.90;101252.91;4947633;28;45317;-75